createdAt,value
2018-12-14T00:01:20.037Z,14.87
2018-12-14T00:03:49.093Z,15.20
2018-12-14T00:06:30.669Z,12.90
2018-12-14T00:08:59.876Z,13.10
2018-12-14T00:11:45.507Z,14.95
2018-12-14T00:14:12.348Z,12.95
2018-12-14T00:16:53.571Z,13.72
2018-12-14T00:19:23.334Z,13.32
2018-12-14T00:22:04.897Z,13.55
2018-12-14T00:24:33.957Z,13.10
2018-12-14T00:27:15.717Z,12.30
2018-12-14T00:29:44.921Z,15.20
2018-12-14T00:32:26.561Z,13.58
2018-12-14T00:34:55.503Z,13.22
2018-12-14T00:37:36.717Z,12.98
2018-12-14T00:40:05.793Z,13.40
2018-12-14T00:42:46.989Z,13.35
2018-12-14T00:45:17.765Z,14.05
2018-12-14T00:47:58.986Z,15.03
2018-12-14T00:50:27.842Z,14.38
2018-12-14T00:53:09.029Z,13.75
2018-12-14T00:55:38.309Z,13.80
2018-12-14T00:58:19.541Z,15.08
2018-12-14T01:00:49.317Z,14.93
2018-12-14T01:03:30.726Z,13.50
2018-12-14T01:05:59.885Z,15.72
2018-12-14T01:08:41.091Z,14.83
2018-12-14T01:11:10.186Z,15.30
2018-12-14T01:13:51.468Z,14.45
2018-12-14T01:16:20.330Z,13.53
2018-12-14T01:19:01.558Z,14.35
2018-12-14T01:21:30.429Z,13.15
2018-12-14T01:24:11.741Z,14.73
2018-12-14T01:26:40.629Z,14.60
2018-12-14T01:29:21.821Z,14.85
2018-12-14T01:31:50.683Z,14.25
2018-12-14T01:34:31.987Z,15.30
2018-12-14T01:37:00.853Z,14.28
2018-12-14T01:39:42.055Z,14.68
2018-12-14T01:42:12.798Z,13.90
2018-12-14T01:44:54.054Z,14.00
2018-12-14T01:47:22.900Z,12.98
2018-12-14T01:50:05.447Z,13.93
2018-12-14T01:52:34.678Z,14.78
2018-12-14T01:55:15.962Z,14.78
2018-12-14T01:57:46.566Z,11.90
2018-12-14T02:00:29.063Z,12.90
2018-12-14T02:02:57.930Z,13.15
2018-12-14T02:05:39.127Z,15.70
2018-12-14T02:08:08.095Z,13.88
2018-12-14T02:10:49.314Z,14.38
2018-12-14T02:13:18.179Z,13.62
2018-12-14T02:15:59.386Z,15.53
2018-12-14T02:18:28.235Z,14.73
2018-12-14T02:21:09.429Z,14.15
2018-12-14T02:23:40.190Z,14.10
2018-12-14T02:26:21.437Z,16.25
2018-12-14T02:28:50.382Z,14.03
2018-12-14T02:31:31.570Z,14.80
2018-12-14T02:34:00.414Z,14.53
2018-12-14T02:36:41.625Z,14.40
2018-12-14T02:39:10.510Z,14.55
2018-12-14T02:41:51.715Z,15.48
2018-12-14T02:44:20.572Z,14.30
2018-12-14T02:47:01.892Z,13.90
2018-12-14T02:49:32.141Z,14.15
2018-12-14T02:52:13.330Z,14.73
2018-12-14T02:54:42.162Z,15.18
2018-12-14T02:57:23.371Z,16.90
2018-12-14T02:59:52.206Z,13.98
2018-12-14T03:02:33.766Z,14.30
2018-12-14T03:05:02.695Z,12.88
2018-12-14T03:07:43.941Z,14.03
2018-12-14T03:10:12.892Z,13.25
2018-12-14T03:12:54.101Z,14.98
2018-12-14T03:15:22.944Z,15.85
2018-12-14T03:18:04.147Z,14.35
2018-12-14T03:20:33.028Z,15.90
2018-12-14T03:23:14.218Z,14.60
2018-12-14T03:25:43.429Z,16.12
2018-12-14T03:28:24.669Z,14.15
2018-12-14T03:30:53.522Z,13.90
2018-12-14T03:33:34.818Z,15.40
2018-12-14T03:36:03.778Z,14.33
2018-12-14T03:38:45.162Z,15.90
2018-12-14T03:41:14.026Z,15.38
2018-12-14T03:43:55.233Z,13.53
2018-12-14T03:46:24.093Z,14.65
2018-12-14T03:49:05.306Z,15.13
2018-12-14T03:51:36.070Z,15.38
2018-12-14T03:54:17.373Z,14.65
2018-12-14T03:56:46.374Z,13.75
2018-12-14T03:59:29.828Z,15.45
2018-12-14T04:01:58.684Z,14.25
2018-12-14T04:04:39.950Z,14.93
2018-12-14T04:07:08.843Z,14.80
2018-12-14T04:09:50.058Z,16.40
2018-12-14T04:12:18.934Z,16.02
2018-12-14T04:15:00.188Z,15.60
2018-12-14T04:17:29.041Z,16.00
2018-12-14T04:20:10.286Z,16.52
2018-12-14T04:22:39.149Z,15.75
2018-12-14T04:25:20.457Z,15.72
2018-12-14T04:27:49.298Z,18.42
2018-12-14T04:30:30.509Z,17.80
2018-12-14T04:32:59.370Z,18.10
2018-12-14T04:35:40.928Z,18.30
2018-12-14T04:38:09.785Z,19.10
2018-12-14T04:40:51.042Z,18.32
2018-12-14T04:43:19.897Z,17.57
2018-12-14T04:46:01.074Z,19.45
2018-12-14T04:48:30.238Z,19.02
2018-12-14T04:51:11.467Z,19.32
2018-12-14T04:53:40.310Z,18.85
2018-12-14T04:56:21.566Z,19.50
2018-12-14T04:58:50.438Z,19.52
2018-12-14T05:01:31.645Z,20.52
2018-12-14T05:04:00.523Z,20.65
2018-12-14T05:06:41.877Z,17.70
2018-12-14T05:09:10.834Z,19.60
2018-12-14T05:11:52.017Z,19.15
2018-12-14T05:14:21.018Z,19.20
2018-12-14T05:17:02.226Z,19.70
2018-12-14T05:19:31.817Z,19.73
2018-12-14T05:22:13.078Z,19.80
2018-12-14T05:24:41.928Z,21.20
2018-12-14T05:27:23.257Z,20.92
2018-12-14T05:29:52.565Z,19.90
2018-12-14T05:32:34.005Z,20.00
2018-12-14T05:35:03.104Z,20.10
2018-12-14T05:37:44.341Z,20.23
2018-12-14T05:40:15.381Z,20.65
2018-12-14T05:43:02.395Z,20.52
2018-12-14T05:45:28.753Z,20.92
2018-12-14T05:48:10.139Z,20.02
2018-12-14T05:50:39.379Z,19.98
2018-12-14T05:53:20.838Z,21.20
2018-12-14T05:55:49.766Z,21.25
2018-12-14T05:58:36.251Z,19.90
2018-12-14T06:01:06.234Z,22.20
2018-12-14T06:03:47.977Z,21.00
2018-12-14T06:06:16.950Z,21.65
2018-12-14T06:08:59.035Z,23.20
2018-12-14T06:11:28.114Z,24.50
2018-12-14T06:14:09.974Z,20.80
2018-12-14T06:16:41.241Z,20.05
2018-12-14T06:19:22.486Z,23.18
2018-12-14T06:21:51.810Z,19.70
2018-12-14T06:24:33.364Z,22.45
2018-12-14T06:27:02.449Z,20.97
2018-12-14T06:29:44.220Z,20.30
2018-12-14T06:32:13.121Z,21.95
2018-12-14T06:34:54.773Z,20.57
2018-12-14T06:37:24.055Z,22.13
2018-12-14T06:40:05.673Z,19.55
2018-12-14T06:42:34.561Z,18.55
2018-12-14T06:45:16.762Z,17.98
2018-12-14T06:47:46.041Z,20.60
2018-12-14T06:50:29.115Z,18.00
2018-12-14T06:52:58.607Z,18.87
2018-12-14T06:55:39.857Z,20.00
2018-12-14T06:58:09.001Z,18.45
2018-12-14T07:00:51.209Z,18.17
2018-12-14T07:03:20.758Z,18.77
2018-12-14T07:06:02.186Z,21.02
2018-12-14T07:08:31.449Z,16.45
2018-12-14T07:11:12.753Z,16.35
2018-12-14T07:13:41.949Z,17.98
2018-12-14T07:16:23.482Z,17.10
2018-12-14T07:19:04.957Z,18.75
2018-12-14T07:21:34.300Z,18.07
2018-12-14T07:24:15.837Z,19.77
2018-12-14T07:26:45.665Z,17.70
2018-12-14T07:29:27.054Z,16.70
2018-12-14T07:31:56.303Z,18.07
2018-12-14T07:34:37.638Z,16.00
2018-12-14T07:37:08.002Z,17.82
2018-12-14T07:39:49.313Z,16.40
2018-12-14T07:42:18.832Z,15.83
2018-12-14T07:45:00.033Z,17.27
2018-12-14T07:47:29.777Z,15.38
2018-12-14T07:50:11.537Z,17.37
2018-12-14T07:52:40.554Z,16.60
2018-12-14T07:55:26.229Z,18.85
2018-12-14T07:57:57.393Z,16.95
2018-12-14T08:00:39.177Z,17.60
2018-12-14T08:03:08.746Z,17.27
2018-12-14T08:05:50.109Z,18.10
2018-12-14T08:08:20.210Z,16.67
2018-12-14T08:11:01.831Z,16.15
2018-12-14T08:13:34.787Z,16.00
2018-12-14T08:16:14.206Z,15.80
2018-12-14T08:18:43.543Z,15.98
2018-12-14T08:21:24.822Z,14.73
2018-12-14T08:23:54.168Z,14.95
2018-12-14T08:26:35.393Z,15.98
2018-12-14T08:29:05.201Z,15.68
2018-12-14T08:31:47.385Z,14.95
2018-12-14T08:34:16.681Z,14.78
2018-12-14T08:36:58.040Z,15.70
2018-12-14T08:39:27.781Z,16.00
2018-12-14T08:42:09.031Z,15.13
2018-12-14T08:44:38.250Z,14.28
2018-12-14T08:47:07.662Z,16.37
2018-12-14T08:49:48.911Z,17.05
2018-12-14T08:52:18.094Z,14.93
2018-12-14T08:54:59.368Z,16.35
2018-12-14T08:57:30.142Z,17.90
2018-12-14T09:00:11.576Z,17.52
2018-12-14T09:02:42.379Z,15.32
2018-12-14T09:05:24.461Z,17.52
2018-12-14T09:07:53.533Z,17.48
2018-12-14T09:10:34.770Z,17.75
2018-12-14T09:13:03.670Z,16.80
2018-12-14T09:15:44.866Z,15.80
2018-12-14T09:18:13.758Z,17.73
2018-12-14T09:21:00.886Z,15.58
2018-12-14T09:23:27.842Z,14.28
2018-12-14T09:26:09.089Z,15.55
2018-12-14T09:28:38.195Z,16.15
2018-12-14T09:31:20.309Z,16.25
2018-12-14T09:33:49.379Z,16.17
2018-12-14T09:36:30.641Z,15.60
2018-12-14T09:38:59.774Z,14.50
2018-12-14T09:41:41.022Z,14.75
2018-12-14T09:44:09.886Z,13.08
2018-12-14T09:46:51.178Z,15.40
2018-12-14T09:49:20.173Z,15.38
2018-12-14T09:52:01.470Z,14.30
2018-12-14T09:54:30.330Z,13.72
2018-12-14T09:57:11.669Z,16.93
2018-12-14T09:59:41.873Z,16.37
2018-12-14T10:02:23.072Z,18.42
2018-12-14T10:04:53.257Z,16.40
2018-12-14T10:07:34.502Z,17.02
2018-12-14T10:10:04.715Z,16.65
2018-12-14T10:12:46.050Z,17.98
2018-12-14T10:15:14.940Z,15.28
2018-12-14T10:17:56.537Z,18.05
2018-12-14T10:20:25.466Z,17.40
2018-12-14T10:23:06.845Z,15.18
2018-12-14T10:25:36.184Z,18.02
2018-12-14T10:28:17.539Z,16.67
2018-12-14T10:30:47.913Z,16.90
2018-12-14T10:33:29.182Z,16.50
2018-12-14T10:35:58.150Z,16.55
2018-12-14T10:38:39.375Z,16.80
2018-12-14T10:41:10.130Z,16.75
2018-12-14T10:43:51.395Z,14.70
2018-12-14T10:46:21.491Z,14.23
2018-12-14T10:49:02.712Z,15.25
2018-12-14T10:51:31.742Z,14.70
2018-12-14T10:54:13.166Z,16.37
2018-12-14T10:56:42.128Z,16.73
2018-12-14T10:59:28.362Z,16.95
2018-12-14T11:01:57.229Z,17.07
2018-12-14T11:04:39.362Z,15.55
2018-12-14T11:07:08.234Z,15.98
2018-12-14T11:09:49.450Z,17.15
2018-12-14T11:12:18.434Z,18.52
2018-12-14T11:14:59.695Z,15.32
2018-12-14T11:17:28.854Z,17.12
2018-12-14T11:20:10.509Z,16.77
2018-12-14T11:22:39.370Z,16.45
2018-12-14T11:25:20.782Z,19.55
2018-12-14T11:27:49.647Z,18.00
2018-12-14T11:30:30.941Z,17.62
2018-12-14T11:32:59.890Z,19.62
2018-12-14T11:35:41.262Z,18.05
2018-12-14T11:38:10.226Z,17.07
2018-12-14T11:40:51.477Z,16.15
2018-12-14T11:43:20.368Z,18.40
2018-12-14T11:46:01.582Z,19.65
2018-12-14T11:48:30.458Z,17.55
2018-12-14T11:51:16.247Z,19.02
2018-12-14T11:53:45.114Z,16.80
2018-12-14T11:56:26.369Z,19.95
2018-12-14T11:58:55.254Z,16.05
2018-12-14T12:01:36.536Z,16.37
2018-12-14T12:04:05.838Z,17.35
2018-12-14T12:06:51.905Z,15.60
2018-12-14T12:09:20.904Z,16.85
2018-12-14T12:12:02.759Z,14.05
2018-12-14T12:17:12.004Z,16.57
2018-12-14T12:19:40.877Z,15.05
2018-12-14T12:22:22.110Z,15.72
2018-12-14T12:24:51.762Z,17.55
2018-12-14T12:27:33.020Z,18.70
2018-12-14T12:30:02.014Z,16.95
2018-12-14T12:32:49.264Z,14.80
2018-12-14T12:35:18.331Z,16.45
2018-12-14T12:37:59.539Z,16.48
2018-12-14T12:40:28.431Z,13.13
2018-12-14T12:43:09.733Z,15.65
2018-12-14T12:45:40.537Z,15.43
2018-12-14T12:48:21.829Z,15.78
2018-12-14T12:50:50.708Z,16.82
2018-12-14T12:53:32.026Z,14.80
2018-12-14T12:56:02.618Z,14.90
2018-12-14T12:58:43.902Z,15.95
2018-12-14T13:01:12.870Z,14.10
2018-12-14T13:03:54.978Z,15.48
2018-12-14T13:06:23.874Z,14.93
2018-12-14T13:09:06.124Z,13.72
2018-12-14T13:11:36.467Z,14.40
2018-12-14T13:14:17.731Z,16.73
2018-12-14T13:16:48.552Z,16.67
2018-12-14T13:19:30.795Z,16.75
2018-12-14T13:21:59.967Z,16.37
2018-12-14T13:24:41.234Z,16.30
2018-12-14T13:27:10.212Z,16.55
2018-12-14T13:29:51.520Z,17.70
2018-12-14T13:32:20.762Z,15.70
2018-12-14T13:35:02.642Z,16.85
2018-12-14T13:37:31.557Z,13.80
2018-12-14T13:40:12.810Z,17.37
2018-12-14T13:42:42.317Z,15.20
2018-12-14T13:45:24.229Z,13.62
2018-12-14T13:47:53.352Z,15.55
2018-12-14T13:50:34.606Z,15.72
2018-12-14T13:53:03.454Z,15.78
2018-12-14T13:55:44.702Z,15.48
2018-12-14T13:58:13.653Z,15.20
2018-12-14T14:00:54.873Z,18.75
2018-12-14T14:03:23.938Z,16.60
2018-12-14T14:06:05.165Z,16.05
2018-12-14T14:08:34.029Z,16.97
2018-12-14T14:11:15.280Z,16.48
2018-12-14T14:13:44.168Z,19.92
2018-12-14T14:16:26.109Z,18.55
2018-12-14T14:18:55.523Z,17.92
2018-12-14T14:21:37.234Z,18.27
2018-12-14T14:24:06.211Z,17.90
2018-12-14T14:26:47.745Z,16.80
2018-12-14T14:29:16.986Z,17.67
2018-12-14T14:31:58.297Z,16.67
2018-12-14T14:34:27.728Z,18.17
2018-12-14T14:37:09.390Z,21.25
2018-12-14T14:39:38.826Z,18.35
2018-12-14T14:42:20.229Z,21.25
2018-12-14T14:44:49.544Z,20.25
2018-12-14T14:47:31.406Z,19.23
2018-12-14T14:50:00.541Z,22.73
2018-12-14T14:52:41.825Z,18.90
2018-12-14T14:55:10.742Z,18.12
2018-12-14T14:57:52.361Z,19.60
2018-12-14T15:00:31.555Z,20.50
2018-12-14T15:03:16.230Z,20.62
2018-12-14T15:05:45.929Z,17.85
2018-12-14T15:08:27.861Z,18.52
2018-12-14T15:10:56.853Z,20.25
2018-12-14T15:13:38.207Z,18.73
2018-12-14T15:16:07.075Z,17.50
2018-12-14T15:18:48.304Z,19.05
2018-12-14T15:21:17.500Z,21.75
2018-12-14T15:23:58.881Z,19.98
2018-12-14T15:26:28.238Z,18.05
2018-12-14T15:29:10.122Z,18.15
2018-12-14T15:31:39.199Z,20.60
2018-12-14T15:34:20.629Z,19.35
2018-12-14T15:36:49.696Z,18.35
2018-12-14T15:39:31.136Z,18.92
2018-12-14T15:42:00.002Z,20.62
2018-12-14T15:44:41.281Z,20.72
2018-12-14T15:47:10.159Z,20.40
2018-12-14T15:49:51.381Z,18.50
2018-12-14T15:52:20.358Z,18.70
2018-12-14T15:55:01.613Z,20.43
2018-12-14T15:57:30.585Z,18.05
2018-12-14T16:00:24.642Z,16.02
2018-12-14T16:02:54.144Z,15.40
2018-12-14T16:05:35.397Z,17.17
2018-12-14T16:08:04.273Z,17.10
2018-12-14T16:10:45.502Z,15.15
2018-12-14T16:13:14.369Z,17.45
2018-12-14T16:15:55.602Z,17.80
2018-12-14T16:18:24.574Z,16.95
2018-12-14T16:21:05.886Z,16.67
2018-12-14T16:23:34.743Z,14.15
2018-12-14T16:26:16.021Z,16.12
2018-12-14T16:28:45.013Z,16.62
2018-12-14T16:31:26.449Z,15.55
2018-12-14T16:33:56.442Z,15.25
2018-12-14T16:36:38.029Z,18.48
2018-12-14T16:39:07.934Z,19.27
2018-12-14T16:41:49.947Z,17.27
2018-12-14T16:44:19.318Z,17.55
2018-12-14T16:47:00.926Z,16.62
2018-12-14T16:49:30.120Z,16.27
2018-12-14T16:52:11.753Z,16.05
2018-12-14T16:54:40.887Z,17.60
2018-12-14T16:57:22.567Z,16.05
2018-12-14T16:59:51.505Z,17.02
2018-12-14T17:02:32.783Z,15.38
2018-12-14T17:05:01.813Z,14.15
2018-12-14T17:07:43.102Z,16.07
2018-12-14T17:10:12.622Z,16.57
2018-12-14T17:12:54.513Z,15.90
2018-12-14T17:15:23.436Z,16.93
2018-12-14T17:18:04.998Z,16.75
2018-12-14T17:20:34.210Z,15.88
2018-12-14T17:23:15.545Z,15.50
2018-12-14T17:25:44.445Z,16.45
2018-12-14T17:28:26.107Z,15.45
2018-12-14T17:30:55.013Z,15.10
2018-12-14T17:33:36.843Z,15.85
2018-12-14T17:36:05.889Z,15.25
2018-12-14T17:38:47.159Z,15.53
2018-12-14T17:41:16.045Z,12.63
2018-12-14T17:43:57.353Z,14.30
2018-12-14T17:46:26.214Z,12.23
2018-12-14T17:49:07.665Z,14.00
2018-12-14T17:51:37.156Z,13.88
2018-12-14T17:54:18.388Z,12.98
2018-12-14T17:56:47.274Z,13.68
2018-12-14T17:59:29.337Z,14.03
2018-12-14T18:01:58.418Z,12.70
2018-12-14T18:04:39.662Z,12.78
2018-12-14T18:07:08.570Z,14.80
2018-12-14T18:09:49.810Z,13.75
2018-12-14T18:12:18.678Z,12.88
2018-12-14T18:14:59.917Z,17.77
2018-12-14T18:17:28.774Z,12.60
2018-12-14T18:20:10.029Z,14.85
2018-12-14T18:22:51.866Z,14.00
2018-12-14T18:25:20.969Z,13.85
2018-12-14T18:28:02.233Z,14.50
2018-12-14T18:30:31.663Z,14.75
2018-12-14T18:33:12.912Z,14.20
2018-12-14T18:35:42.190Z,13.75
2018-12-14T18:38:23.397Z,13.75
2018-12-14T18:40:52.405Z,13.60
2018-12-14T18:43:33.677Z,14.40
2018-12-14T18:46:02.652Z,13.75
2018-12-14T18:48:44.429Z,12.93
2018-12-14T18:51:13.420Z,15.15
2018-12-14T18:53:58.950Z,14.07
2018-12-14T18:56:28.606Z,14.50
2018-12-14T18:59:11.566Z,14.60
2018-12-14T19:01:41.479Z,14.87
2018-12-14T19:04:22.782Z,17.95
2018-12-14T19:06:52.107Z,14.80
2018-12-14T19:09:33.919Z,15.83
2018-12-14T19:12:02.827Z,14.28
2018-12-14T19:14:44.125Z,15.60
2018-12-14T19:17:13.227Z,14.68
2018-12-14T19:19:55.074Z,14.65
2018-12-14T19:22:24.053Z,14.87
2018-12-14T19:25:05.990Z,14.85
2018-12-14T19:27:34.855Z,13.15
2018-12-14T19:30:16.054Z,13.75
2018-12-14T19:32:44.982Z,15.68
2018-12-14T19:35:26.263Z,14.95
2018-12-14T19:37:57.073Z,15.70
2018-12-14T19:40:38.476Z,15.30
2018-12-14T19:43:07.402Z,13.65
2018-12-14T19:45:48.694Z,15.20
2018-12-14T19:48:17.573Z,16.27
2018-12-14T19:50:59.188Z,15.28
2018-12-14T19:53:28.321Z,14.78
2018-12-14T19:56:15.084Z,14.15
2018-12-14T19:58:45.162Z,15.15
2018-12-14T20:01:26.610Z,15.93
2018-12-14T20:03:56.626Z,16.20
2018-12-14T20:06:38.410Z,13.13
2018-12-14T20:09:10.061Z,13.60
2018-12-14T20:11:51.354Z,13.65
2018-12-14T20:14:20.353Z,17.23
2018-12-14T20:17:01.917Z,14.50
2018-12-14T20:19:32.314Z,13.18
2018-12-14T20:22:13.813Z,12.60
2018-12-14T20:24:42.966Z,15.95
2018-12-14T20:27:24.889Z,14.80
2018-12-14T20:29:54.243Z,14.18
2018-12-14T20:32:35.530Z,14.00
2018-12-14T20:36:09.020Z,14.58
2018-12-14T20:38:50.473Z,13.88
2018-12-14T20:41:19.620Z,14.03
2018-12-14T20:44:01.146Z,14.47
2018-12-14T20:46:30.097Z,14.70
2018-12-14T20:49:11.586Z,13.62
2018-12-14T20:51:41.982Z,15.55
2018-12-14T20:54:23.757Z,15.65
2018-12-14T20:56:52.673Z,14.28
2018-12-14T20:59:33.885Z,14.85
2018-12-14T21:02:02.800Z,14.05
2018-12-14T21:04:44.045Z,14.78
2018-12-14T21:07:13.372Z,15.35
2018-12-14T21:09:55.073Z,16.17
2018-12-14T21:12:24.047Z,15.70
2018-12-14T21:15:07.593Z,15.45
2018-12-14T21:17:36.589Z,18.67
2018-12-14T21:20:17.874Z,16.70
2018-12-14T21:22:46.911Z,15.45
2018-12-14T21:25:28.230Z,14.93
2018-12-14T21:27:57.202Z,15.30
2018-12-14T21:30:38.409Z,16.42
2018-12-14T21:33:08.098Z,15.35
2018-12-14T21:35:49.311Z,15.63
2018-12-14T21:38:18.186Z,15.80
2018-12-14T21:40:59.396Z,15.63
2018-12-14T21:43:28.270Z,16.55
2018-12-14T21:46:09.500Z,16.50
2018-12-14T21:48:38.394Z,16.17
2018-12-14T21:51:19.611Z,15.95
2018-12-14T21:53:48.601Z,17.50
2018-12-14T21:56:29.847Z,16.45
2018-12-14T21:58:58.801Z,17.32
2018-12-14T22:01:40.082Z,15.32
2018-12-14T22:04:09.889Z,16.40
2018-12-14T22:06:51.168Z,18.25
2018-12-14T22:09:20.758Z,17.70
2018-12-14T22:12:02.540Z,16.60
2018-12-14T22:14:31.446Z,15.72
2018-12-14T22:17:12.632Z,21.05
2018-12-14T22:19:41.506Z,16.37
2018-12-14T22:22:22.719Z,18.60
2018-12-14T22:24:51.733Z,17.87
2018-12-14T22:27:32.998Z,17.27
2018-12-14T22:30:02.165Z,16.07
2018-12-14T22:32:43.385Z,17.45
2018-12-14T22:35:12.381Z,14.83
2018-12-14T22:37:53.946Z,15.70
2018-12-14T22:40:22.880Z,17.25
2018-12-14T22:43:04.730Z,17.17
2018-12-14T22:45:33.654Z,17.55
2018-12-14T22:48:14.866Z,17.65
2018-12-14T22:50:43.956Z,17.70
2018-12-14T22:53:25.295Z,16.75
2018-12-14T22:55:54.462Z,16.05
2018-12-14T22:58:35.696Z,16.10
2018-12-14T23:01:04.854Z,19.27
2018-12-14T23:03:46.206Z,18.30
2018-12-14T23:06:15.265Z,18.57
2018-12-14T23:08:56.801Z,18.75
2018-12-14T23:11:26.289Z,17.45
2018-12-14T23:14:07.562Z,17.80
2018-12-14T23:16:37.133Z,17.00
2018-12-14T23:19:18.313Z,17.40
2018-12-14T23:21:47.076Z,18.95
2018-12-14T23:24:28.485Z,18.48
2018-12-14T23:26:57.366Z,19.62
2018-12-14T23:29:38.670Z,19.10
2018-12-14T23:32:07.717Z,18.60
2018-12-14T23:34:48.981Z,20.65
2018-12-14T23:37:18.396Z,21.97
2018-12-14T23:39:59.577Z,18.65
2018-12-14T23:42:28.568Z,20.43
2018-12-14T23:45:10.105Z,20.02
2018-12-14T23:47:39.029Z,21.12
2018-12-14T23:50:20.283Z,18.92
2018-12-14T23:52:49.184Z,19.87
2018-12-14T23:55:30.581Z,20.17
2018-12-14T23:57:59.453Z,19.82
